createdAt,value
2018-08-03T00:01:27.855Z,26.60
2018-08-03T00:03:56.440Z,26.60
2018-08-03T00:06:24.901Z,26.60
2018-08-03T00:08:53.263Z,26.50
2018-08-03T00:11:21.644Z,26.40
2018-08-03T00:13:50.025Z,26.30
2018-08-03T00:16:18.378Z,26.40
2018-08-03T00:18:46.786Z,26.50
2018-08-03T00:21:15.298Z,26.50
2018-08-03T00:23:43.718Z,26.40
2018-08-03T00:26:12.141Z,26.50
2018-08-03T00:28:40.578Z,26.40
2018-08-03T00:31:08.991Z,26.30
2018-08-03T00:33:37.467Z,26.30
2018-08-03T00:36:05.813Z,26.40
2018-08-03T00:38:34.173Z,26.40
2018-08-03T00:41:02.681Z,26.40
2018-08-03T00:43:31.301Z,26.40
2018-08-03T00:45:59.834Z,26.40
2018-08-03T00:48:28.250Z,26.40
2018-08-03T00:50:56.673Z,26.40
2018-08-03T00:53:25.173Z,26.40
2018-08-03T00:55:53.614Z,26.40
2018-08-03T00:58:22.053Z,26.40
2018-08-03T01:00:51.131Z,26.30
2018-08-03T01:03:19.690Z,26.30
2018-08-03T01:05:48.110Z,26.20
2018-08-03T01:08:16.573Z,26.20
2018-08-03T01:10:45.078Z,26.20
2018-08-03T01:13:13.465Z,26.20
2018-08-03T01:15:42.132Z,26.20
2018-08-03T01:18:10.599Z,26.20
2018-08-03T01:20:38.998Z,26.10
2018-08-03T01:23:07.351Z,26.10
2018-08-03T01:25:36.093Z,26.10
2018-08-03T01:28:04.513Z,26.10
2018-08-03T01:30:32.913Z,26.10
2018-08-03T01:33:01.303Z,26.10
2018-08-03T01:35:29.629Z,26.00
2018-08-03T01:37:57.995Z,26.00
2018-08-03T01:40:26.325Z,26.00
2018-08-03T01:42:54.722Z,25.90
2018-08-03T01:45:23.080Z,26.00
2018-08-03T01:47:51.493Z,25.90
2018-08-03T01:52:47.921Z,25.90
2018-08-03T01:55:16.334Z,25.90
2018-08-03T01:57:44.734Z,25.80
2018-08-03T02:00:13.105Z,25.80
2018-08-03T02:02:41.484Z,25.70
2018-08-03T02:05:09.868Z,25.70
2018-08-03T02:07:38.266Z,25.60
2018-08-03T02:10:06.706Z,25.50
2018-08-03T02:12:35.026Z,25.60
2018-08-03T02:15:03.589Z,25.60
2018-08-03T02:17:32.050Z,25.60
2018-08-03T02:22:28.507Z,25.40
2018-08-03T02:24:56.903Z,25.40
2018-08-03T02:27:25.286Z,25.40
2018-08-03T02:29:53.674Z,25.30
2018-08-03T02:32:22.060Z,25.30
2018-08-03T02:34:50.464Z,25.30
2018-08-03T02:37:18.822Z,25.10
2018-08-03T02:39:47.215Z,25.10
2018-08-03T02:42:15.656Z,25.10
2018-08-03T02:44:44.024Z,25.10
2018-08-03T02:47:12.478Z,25.10
2018-08-03T02:49:44.900Z,25.10
2018-08-03T02:52:13.483Z,25.10
2018-08-03T02:54:41.886Z,25.10
2018-08-03T02:57:10.423Z,25.10
2018-08-03T02:59:38.823Z,25.10
2018-08-03T03:02:07.432Z,25.00
2018-08-03T03:04:35.774Z,24.80
2018-08-03T03:07:04.196Z,24.90
2018-08-03T03:09:32.622Z,24.80
2018-08-03T03:12:01.051Z,24.90
2018-08-03T03:14:29.419Z,24.90
2018-08-03T03:16:57.763Z,24.90
2018-08-03T03:19:26.189Z,25.00
2018-08-03T03:21:54.514Z,25.00
2018-08-03T03:24:22.932Z,25.10
2018-08-03T03:26:51.469Z,25.00
2018-08-03T03:29:19.902Z,25.00
2018-08-03T03:31:48.276Z,24.90
2018-08-03T03:34:16.727Z,24.90
2018-08-03T03:36:45.102Z,24.90
2018-08-03T03:39:14.286Z,24.90
2018-08-03T03:41:43.673Z,24.90
2018-08-03T03:44:12.163Z,25.00
2018-08-03T03:46:40.610Z,25.00
2018-08-03T03:49:09.483Z,25.00
2018-08-03T03:51:38.083Z,24.90
2018-08-03T03:54:06.648Z,24.90
2018-08-03T03:56:35.073Z,24.90
2018-08-03T03:59:03.531Z,24.90
2018-08-03T04:01:32.001Z,24.90
2018-08-03T04:04:00.398Z,24.90
2018-08-03T04:06:28.867Z,24.90
2018-08-03T04:08:57.340Z,24.90
2018-08-03T04:11:25.853Z,24.90
2018-08-03T04:13:54.210Z,24.80
2018-08-03T04:16:22.573Z,24.80
2018-08-03T04:18:50.960Z,24.80
2018-08-03T04:21:19.523Z,24.90
2018-08-03T04:23:47.921Z,24.90
2018-08-03T04:26:16.349Z,24.70
2018-08-03T04:28:44.790Z,24.70
2018-08-03T04:31:13.217Z,24.80
2018-08-03T04:33:41.658Z,24.70
2018-08-03T04:36:10.200Z,24.70
2018-08-03T04:38:38.601Z,24.80
2018-08-03T04:41:06.973Z,24.80
2018-08-03T04:43:35.343Z,24.80
2018-08-03T04:46:03.751Z,24.80
2018-08-03T04:48:32.177Z,24.80
2018-08-03T04:51:00.582Z,24.80
2018-08-03T04:53:28.982Z,24.80
2018-08-03T04:55:57.565Z,24.80
2018-08-03T04:58:26.030Z,24.90
2018-08-03T05:00:54.467Z,24.90
2018-08-03T05:03:22.949Z,24.90
2018-08-03T05:05:52.062Z,24.80
2018-08-03T05:08:20.582Z,24.80
2018-08-03T05:10:49.009Z,24.90
2018-08-03T05:13:17.424Z,24.90
2018-08-03T05:15:45.829Z,24.90
2018-08-03T05:18:14.357Z,25.00
2018-08-03T05:20:42.753Z,24.90
2018-08-03T05:23:11.477Z,25.10
2018-08-03T05:25:39.918Z,25.10
2018-08-03T05:28:08.304Z,25.20
2018-08-03T05:30:36.747Z,25.20
2018-08-03T05:33:05.209Z,25.00
2018-08-03T05:35:33.678Z,25.10
2018-08-03T05:38:01.937Z,25.10
2018-08-03T05:40:30.315Z,25.10
2018-08-03T05:42:58.741Z,25.10
2018-08-03T05:45:27.614Z,25.10
2018-08-03T05:47:56.029Z,25.20
2018-08-03T05:50:24.611Z,25.50
2018-08-03T05:52:53.110Z,26.10
2018-08-03T05:55:21.893Z,26.60
2018-08-03T06:00:18.551Z,27.70
2018-08-03T06:02:47.070Z,28.20
2018-08-03T06:05:15.527Z,28.60
2018-08-03T06:07:43.936Z,28.80
2018-08-03T06:10:12.351Z,29.10
2018-08-03T06:12:40.725Z,29.40
2018-08-03T06:15:10.086Z,29.70
2018-08-03T06:17:39.230Z,29.90
2018-08-03T06:20:09.235Z,30.40
2018-08-03T06:22:37.751Z,30.90
2018-08-03T06:25:06.857Z,30.80
2018-08-03T06:27:35.298Z,31.10
2018-08-03T06:30:03.878Z,31.10
2018-08-03T06:32:32.310Z,31.50
2018-08-03T06:35:00.742Z,31.80
2018-08-03T06:37:29.179Z,32.00
2018-08-03T06:39:57.619Z,32.30
2018-08-03T06:42:26.002Z,32.50
2018-08-03T06:44:54.437Z,33.00
2018-08-03T06:47:22.950Z,33.30
2018-08-03T06:49:51.530Z,33.20
2018-08-03T06:52:19.914Z,32.50
2018-08-03T06:54:48.225Z,31.60
2018-08-03T06:57:16.698Z,31.10
2018-08-03T06:59:45.030Z,30.70
2018-08-03T07:02:13.374Z,30.50
2018-08-03T07:04:41.832Z,30.30
2018-08-03T07:07:10.157Z,30.00
2018-08-03T07:09:38.587Z,30.30
2018-08-03T07:12:06.655Z,30.50
2018-08-03T07:14:35.077Z,30.20
2018-08-03T07:17:03.649Z,30.70
2018-08-03T07:19:32.022Z,31.00
2018-08-03T07:22:00.456Z,30.90
2018-08-03T07:24:28.807Z,30.60
2018-08-03T07:26:57.154Z,30.50
2018-08-03T07:29:25.578Z,30.50
2018-08-03T07:31:54.353Z,30.50
2018-08-03T07:34:22.711Z,30.50
2018-08-03T07:36:51.056Z,31.30
2018-08-03T07:39:19.495Z,31.20
2018-08-03T07:41:47.842Z,31.50
2018-08-03T07:44:16.243Z,31.70
2018-08-03T07:46:44.558Z,31.80
2018-08-03T07:49:12.965Z,32.10
2018-08-03T07:51:41.327Z,32.20
2018-08-03T07:54:09.667Z,32.10
2018-08-03T07:56:38.005Z,31.90
2018-08-03T07:59:06.370Z,32.30
2018-08-03T08:04:02.846Z,32.40
2018-08-03T08:06:31.200Z,32.70
2018-08-03T08:08:59.603Z,33.10
2018-08-03T08:11:27.930Z,33.50
2018-08-03T08:13:56.293Z,33.00
2018-08-03T08:16:24.666Z,32.90
2018-08-03T08:18:53.206Z,33.10
2018-08-03T08:21:21.618Z,33.30
2018-08-03T08:23:49.988Z,33.30
2018-08-03T08:26:18.373Z,33.20
2018-08-03T08:28:46.754Z,33.00
2018-08-03T08:33:43.184Z,33.70
2018-08-03T08:36:11.534Z,34.20
2018-08-03T08:38:39.963Z,34.30
2018-08-03T08:41:08.389Z,34.00
2018-08-03T08:43:36.720Z,33.10
2018-08-03T08:46:05.134Z,33.60
2018-08-03T08:48:34.332Z,33.60
2018-08-03T08:51:02.707Z,33.40
2018-08-03T08:53:31.048Z,33.90
2018-08-03T08:55:59.373Z,34.70
2018-08-03T08:58:27.727Z,34.90
2018-08-03T09:00:56.075Z,34.70
2018-08-03T09:03:24.407Z,34.40
2018-08-03T09:05:52.755Z,33.90
2018-08-03T09:08:21.322Z,34.60
2018-08-03T09:10:49.697Z,34.50
2018-08-03T09:13:18.084Z,34.40
2018-08-03T09:15:46.368Z,34.50
2018-08-03T09:18:14.812Z,34.90
2018-08-03T09:20:43.178Z,34.70
2018-08-03T09:23:11.509Z,34.60
2018-08-03T09:25:39.894Z,34.90
2018-08-03T09:28:08.602Z,34.80
2018-08-03T09:30:41.033Z,34.80
2018-08-03T09:33:09.685Z,34.70
2018-08-03T09:35:38.013Z,34.60
2018-08-03T09:38:06.442Z,34.50
2018-08-03T09:40:34.817Z,34.30
2018-08-03T09:43:03.413Z,34.60
2018-08-03T09:45:31.569Z,34.80
2018-08-03T09:47:59.957Z,35.10
2018-08-03T09:50:28.302Z,35.30
2018-08-03T09:52:56.653Z,35.30
2018-08-03T09:55:24.983Z,35.20
2018-08-03T09:57:53.440Z,35.00
2018-08-03T10:00:27.285Z,34.70
2018-08-03T10:02:55.777Z,35.10
2018-08-03T10:05:24.158Z,36.10
2018-08-03T10:07:52.557Z,36.50
2018-08-03T10:10:20.943Z,36.20
2018-08-03T10:12:49.444Z,35.90
2018-08-03T10:15:17.737Z,35.90
2018-08-03T10:17:46.111Z,36.20
2018-08-03T10:20:14.462Z,35.80
2018-08-03T10:22:42.808Z,35.70
2018-08-03T10:25:11.139Z,35.80
2018-08-03T10:27:39.485Z,36.30
2018-08-03T10:30:07.997Z,36.30
2018-08-03T10:32:36.619Z,36.00
2018-08-03T10:35:05.788Z,36.30
2018-08-03T10:37:34.185Z,36.10
2018-08-03T10:40:02.526Z,36.60
2018-08-03T10:42:30.917Z,36.30
2018-08-03T10:44:59.266Z,36.30
2018-08-03T10:47:27.587Z,36.30
2018-08-03T10:49:55.974Z,35.90
2018-08-03T10:52:24.314Z,36.00
2018-08-03T10:54:52.762Z,35.90
2018-08-03T10:57:21.058Z,36.20
2018-08-03T10:59:49.541Z,36.30
2018-08-03T11:02:17.912Z,36.60
2018-08-03T11:04:46.285Z,36.40
2018-08-03T11:07:14.678Z,36.40
2018-08-03T11:12:11.193Z,36.30
2018-08-03T11:14:39.570Z,36.20
2018-08-03T11:17:07.895Z,36.10
2018-08-03T11:19:36.281Z,36.10
2018-08-03T11:22:04.614Z,36.40
2018-08-03T11:24:32.910Z,36.50
2018-08-03T11:27:01.287Z,36.60
2018-08-03T11:29:29.693Z,36.60
2018-08-03T11:31:58.095Z,36.50
2018-08-03T11:34:26.415Z,36.60
2018-08-03T11:36:54.732Z,36.10
2018-08-03T11:39:23.648Z,36.40
2018-08-03T11:41:52.020Z,36.50
2018-08-03T11:44:21.209Z,36.60
2018-08-03T11:46:49.648Z,36.60
2018-08-03T11:49:17.998Z,36.50
2018-08-03T11:51:50.512Z,36.40
2018-08-03T11:54:18.835Z,36.40
2018-08-03T11:56:47.196Z,36.50
2018-08-03T11:59:15.565Z,36.60
2018-08-03T12:01:44.069Z,36.30
2018-08-03T12:04:12.314Z,36.00
2018-08-03T12:06:40.686Z,36.20
2018-08-03T12:09:09.504Z,36.10
2018-08-03T12:11:37.873Z,36.60
2018-08-03T12:14:06.240Z,36.80
2018-08-03T12:16:34.617Z,36.70
2018-08-03T12:19:02.973Z,36.60
2018-08-03T12:21:31.323Z,36.70
2018-08-03T12:23:59.699Z,37.00
2018-08-03T12:26:28.035Z,36.70
2018-08-03T12:28:56.390Z,36.60
2018-08-03T12:31:24.707Z,36.70
2018-08-03T12:33:53.087Z,36.60
2018-08-03T12:36:21.497Z,36.40
2018-08-03T12:38:49.827Z,36.50
2018-08-03T12:41:18.181Z,36.70
2018-08-03T12:43:46.558Z,36.90
2018-08-03T12:46:14.869Z,36.70
2018-08-03T12:48:43.231Z,36.70
2018-08-03T12:51:11.586Z,37.00
2018-08-03T12:53:39.931Z,37.10
2018-08-03T12:56:08.238Z,37.20
2018-08-03T12:58:36.615Z,37.10
2018-08-03T13:01:04.982Z,37.10
2018-08-03T13:03:33.316Z,37.00
2018-08-03T13:06:01.708Z,36.80
2018-08-03T13:08:30.143Z,36.80
2018-08-03T13:10:58.437Z,36.80
2018-08-03T13:13:26.801Z,36.70
2018-08-03T13:15:55.137Z,36.80
2018-08-03T13:18:23.495Z,36.70
2018-08-03T13:20:51.842Z,36.60
2018-08-03T13:23:20.191Z,36.90
2018-08-03T13:25:48.778Z,36.80
2018-08-03T13:28:18.102Z,36.80
2018-08-03T13:30:50.686Z,36.80
2018-08-03T13:33:19.090Z,36.80
2018-08-03T13:35:47.400Z,37.30
2018-08-03T13:38:15.741Z,37.70
2018-08-03T13:40:44.061Z,38.10
2018-08-03T13:43:12.421Z,38.20
2018-08-03T13:45:40.866Z,38.00
2018-08-03T13:48:09.431Z,38.10
2018-08-03T13:50:37.750Z,38.00
2018-08-03T13:53:06.265Z,38.00
2018-08-03T13:55:34.630Z,37.50
2018-08-03T13:58:03.187Z,36.90
2018-08-03T14:00:31.434Z,36.60
2018-08-03T14:02:59.814Z,36.80
2018-08-03T14:05:28.209Z,36.80
2018-08-03T14:07:56.582Z,36.30
2018-08-03T14:10:24.910Z,36.70
2018-08-03T14:12:53.284Z,37.10
2018-08-03T14:15:21.604Z,37.20
2018-08-03T14:17:50.048Z,37.40
2018-08-03T14:20:18.392Z,37.60
2018-08-03T14:22:46.752Z,37.40
2018-08-03T14:25:15.119Z,37.20
2018-08-03T14:27:43.500Z,37.10
2018-08-03T14:30:16.115Z,37.10
2018-08-03T14:32:44.944Z,37.20
2018-08-03T14:35:13.374Z,37.30
2018-08-03T14:37:41.835Z,37.50
2018-08-03T14:40:10.272Z,37.50
2018-08-03T14:42:38.669Z,37.40
2018-08-03T14:45:07.897Z,37.40
2018-08-03T14:47:37.027Z,37.30
2018-08-03T14:50:05.508Z,37.40
2018-08-03T14:52:33.914Z,37.20
2018-08-03T14:55:02.341Z,37.00
2018-08-03T14:57:30.804Z,37.00
2018-08-03T14:59:59.296Z,36.90
2018-08-03T15:04:55.703Z,36.90
2018-08-03T15:07:24.043Z,37.10
2018-08-03T15:09:52.511Z,37.20
2018-08-03T15:12:20.897Z,37.20
2018-08-03T15:14:49.268Z,37.20
2018-08-03T15:19:45.826Z,36.90
2018-08-03T15:22:14.137Z,37.00
2018-08-03T15:24:42.466Z,36.80
2018-08-03T15:27:10.855Z,36.80
2018-08-03T15:29:39.189Z,36.70
2018-08-03T15:32:07.528Z,36.80
2018-08-03T15:34:35.838Z,37.00
2018-08-03T15:37:09.193Z,36.80
2018-08-03T15:39:37.526Z,36.70
2018-08-03T15:42:06.030Z,36.50
2018-08-03T15:44:34.380Z,36.20
2018-08-03T15:47:03.022Z,36.20
2018-08-03T15:49:31.404Z,36.20
2018-08-03T15:51:59.861Z,36.10
2018-08-03T15:54:28.262Z,36.10
2018-08-03T15:56:56.586Z,36.30
2018-08-03T15:59:25.077Z,36.30
2018-08-03T16:01:53.411Z,36.30
2018-08-03T16:04:21.765Z,36.30
2018-08-03T16:06:51.157Z,36.20
2018-08-03T16:09:19.375Z,36.20
2018-08-03T16:11:47.754Z,35.90
2018-08-03T16:14:16.147Z,35.90
2018-08-03T16:16:44.523Z,36.00
2018-08-03T16:19:12.986Z,36.10
2018-08-03T16:24:09.490Z,36.00
2018-08-03T16:26:37.903Z,35.90
2018-08-03T16:29:06.232Z,36.00
2018-08-03T16:31:34.620Z,35.70
2018-08-03T16:34:03.170Z,35.50
2018-08-03T16:36:31.534Z,35.60
2018-08-03T16:39:00.195Z,35.40
2018-08-03T16:41:28.560Z,35.40
2018-08-03T16:43:57.361Z,35.30
2018-08-03T16:48:53.817Z,35.10
2018-08-03T16:51:22.194Z,35.10
2018-08-03T16:53:50.594Z,35.00
2018-08-03T16:56:18.982Z,35.10
2018-08-03T16:58:47.306Z,35.10
2018-08-03T17:01:15.694Z,35.20
2018-08-03T17:03:44.029Z,35.00
2018-08-03T17:06:12.437Z,34.80
2018-08-03T17:08:40.738Z,34.70
2018-08-03T17:11:09.111Z,34.80
2018-08-03T17:13:37.471Z,34.60
2018-08-03T17:16:06.265Z,34.60
2018-08-03T17:18:34.621Z,34.70
2018-08-03T17:21:02.999Z,34.70
2018-08-03T17:23:31.329Z,34.70
2018-08-03T17:25:59.654Z,34.40
2018-08-03T17:28:27.987Z,34.40
2018-08-03T17:30:56.374Z,34.40
2018-08-03T17:33:24.926Z,34.40
2018-08-03T17:35:53.519Z,34.20
2018-08-03T17:38:22.118Z,34.10
2018-08-03T17:40:50.531Z,34.10
2018-08-03T17:43:18.919Z,34.00
2018-08-03T17:45:47.336Z,34.00
2018-08-03T17:48:15.747Z,33.90
2018-08-03T17:50:44.105Z,33.80
2018-08-03T17:53:16.570Z,33.70
2018-08-03T17:55:44.972Z,33.70
2018-08-03T17:58:13.345Z,33.60
2018-08-03T18:00:41.805Z,33.50
2018-08-03T18:03:10.260Z,33.60
2018-08-03T18:05:41.563Z,33.60
2018-08-03T18:08:10.029Z,33.60
2018-08-03T18:10:38.498Z,33.60
2018-08-03T18:13:06.873Z,33.40
2018-08-03T18:15:35.263Z,33.30
2018-08-03T18:18:03.690Z,33.30
2018-08-03T18:20:32.013Z,33.30
2018-08-03T18:23:00.481Z,33.20
2018-08-03T18:25:28.862Z,33.20
2018-08-03T18:27:57.243Z,33.10
2018-08-03T18:30:25.598Z,33.00
2018-08-03T18:32:53.962Z,32.90
2018-08-03T18:35:22.351Z,32.90
2018-08-03T18:37:50.794Z,32.80
2018-08-03T18:40:19.273Z,32.80
2018-08-03T18:42:47.633Z,32.80
2018-08-03T18:45:16.026Z,32.70
2018-08-03T18:47:44.398Z,32.60
2018-08-03T18:50:12.816Z,32.50
2018-08-03T18:52:41.149Z,32.50
2018-08-03T18:55:09.503Z,32.40
2018-08-03T18:57:37.914Z,32.30
2018-08-03T19:00:07.081Z,32.10
2018-08-03T19:02:35.463Z,32.10
2018-08-03T19:05:04.256Z,32.00
2018-08-03T19:07:32.603Z,31.80
2018-08-03T19:10:01.025Z,31.90
2018-08-03T19:12:29.381Z,31.80
2018-08-03T19:14:57.739Z,31.70
2018-08-03T19:17:26.136Z,31.70
2018-08-03T19:19:54.514Z,31.60
2018-08-03T19:22:22.926Z,31.60
2018-08-03T19:24:51.278Z,31.40
2018-08-03T19:27:19.641Z,31.30
2018-08-03T19:29:47.988Z,31.30
2018-08-03T19:32:16.384Z,31.20
2018-08-03T19:34:44.744Z,31.10
2018-08-03T19:37:13.164Z,31.10
2018-08-03T19:39:41.514Z,31.10
2018-08-03T19:42:10.033Z,31.10
2018-08-03T19:44:38.403Z,31.00
2018-08-03T19:47:06.954Z,30.90
2018-08-03T19:49:35.288Z,30.90
2018-08-03T19:52:03.730Z,30.90
2018-08-03T19:54:32.497Z,30.80
2018-08-03T19:57:00.809Z,30.80
2018-08-03T19:59:29.158Z,30.70
2018-08-03T20:01:57.534Z,30.80
2018-08-03T20:04:25.912Z,30.60
2018-08-03T20:06:54.406Z,30.50
2018-08-03T20:09:22.708Z,30.40
2018-08-03T20:11:51.272Z,30.50
2018-08-03T20:14:19.656Z,30.50
2018-08-03T20:16:48.031Z,30.40
2018-08-03T20:19:16.410Z,30.40
2018-08-03T20:21:44.794Z,30.40
2018-08-03T20:24:13.255Z,30.30
2018-08-03T20:26:41.597Z,30.30
2018-08-03T20:29:09.960Z,30.20
2018-08-03T20:31:39.365Z,30.10
2018-08-03T20:34:07.754Z,30.10
2018-08-03T20:36:36.226Z,30.00
2018-08-03T20:39:07.290Z,29.90
2018-08-03T20:41:35.723Z,29.90
2018-08-03T20:44:04.161Z,29.80
2018-08-03T20:46:32.565Z,29.70
2018-08-03T20:49:01.004Z,29.70
2018-08-03T20:51:29.403Z,29.60
2018-08-03T20:53:58.050Z,29.50
2018-08-03T20:56:26.474Z,29.50
2018-08-03T20:58:54.955Z,29.50
2018-08-03T21:01:23.642Z,29.40
2018-08-03T21:03:52.116Z,29.30
2018-08-03T21:06:20.531Z,29.50
2018-08-03T21:08:49.445Z,29.40
2018-08-03T21:11:17.926Z,29.30
2018-08-03T21:13:46.330Z,29.20
2018-08-03T21:16:14.825Z,29.20
2018-08-03T21:18:43.282Z,29.10
2018-08-03T21:21:12.018Z,29.10
2018-08-03T21:23:40.518Z,29.10
2018-08-03T21:26:09.403Z,29.10
2018-08-03T21:28:37.950Z,29.00
2018-08-03T21:31:06.405Z,29.00
2018-08-03T21:33:35.192Z,29.00
2018-08-03T21:36:05.490Z,29.00
2018-08-03T21:38:34.199Z,29.00
2018-08-03T21:41:02.571Z,28.80
2018-08-03T21:43:36.265Z,28.80
2018-08-03T21:48:35.072Z,28.60
2018-08-03T21:51:03.475Z,28.50
2018-08-03T21:53:31.943Z,28.50
2018-08-03T21:56:00.414Z,28.70
2018-08-03T21:58:28.891Z,28.70
2018-08-03T22:03:25.473Z,28.60
2018-08-03T22:05:53.863Z,28.60
2018-08-03T22:08:22.302Z,28.60
2018-08-03T22:10:50.906Z,28.60
2018-08-03T22:13:19.378Z,28.50
2018-08-03T22:15:47.847Z,28.60
2018-08-03T22:18:16.302Z,28.50
2018-08-03T22:20:44.658Z,28.50
2018-08-03T22:23:13.025Z,28.60
2018-08-03T22:25:41.443Z,28.70
2018-08-03T22:28:09.789Z,28.60
2018-08-03T22:30:38.271Z,28.70
2018-08-03T22:33:06.763Z,28.60
2018-08-03T22:35:35.167Z,28.60
2018-08-03T22:38:03.659Z,28.60
2018-08-03T22:40:32.126Z,28.50
2018-08-03T22:43:00.570Z,28.50
2018-08-03T22:45:29.021Z,28.50
2018-08-03T22:47:57.412Z,28.40
2018-08-03T22:50:25.862Z,28.30
2018-08-03T22:52:54.233Z,28.30
2018-08-03T22:55:22.640Z,28.40
2018-08-03T22:57:51.016Z,28.40
2018-08-03T23:00:19.954Z,28.40
2018-08-03T23:02:52.886Z,28.20
2018-08-03T23:05:21.571Z,28.00
2018-08-03T23:07:50.115Z,28.10
2018-08-03T23:10:18.518Z,28.10
2018-08-03T23:12:47.125Z,28.00
2018-08-03T23:15:15.533Z,28.00
2018-08-03T23:17:43.976Z,28.00
2018-08-03T23:20:12.497Z,28.00
2018-08-03T23:22:40.889Z,28.00
2018-08-03T23:25:09.301Z,28.00
2018-08-03T23:27:37.658Z,27.90
2018-08-03T23:30:07.570Z,27.90
2018-08-03T23:32:35.978Z,28.00
2018-08-03T23:35:04.434Z,27.90
2018-08-03T23:37:32.841Z,27.90
2018-08-03T23:40:01.283Z,27.90
2018-08-03T23:42:29.879Z,27.90
2018-08-03T23:44:58.296Z,27.80
2018-08-03T23:47:26.746Z,27.80
2018-08-03T23:49:55.089Z,27.70
2018-08-03T23:52:23.489Z,27.80
2018-08-03T23:54:51.915Z,27.80
2018-08-03T23:57:20.329Z,27.80
2018-08-03T23:59:48.695Z,27.70
